createdAt,value
2016-10-27T00:00:15.772Z,927.91
2016-10-27T00:01:28.817Z,927.73
2016-10-27T00:02:39.813Z,927.68
2016-10-27T00:03:52.352Z,927.84
2016-10-27T00:05:04.790Z,927.67
2016-10-27T00:06:17.773Z,927.63
2016-10-27T00:07:30.293Z,927.55
2016-10-27T00:08:43.296Z,927.42
2016-10-27T00:09:56.796Z,927.37
2016-10-27T00:11:09.810Z,927.29
2016-10-27T00:12:21.349Z,927.3
2016-10-27T00:13:34.465Z,927.36
2016-10-27T00:14:46.429Z,927.4
2016-10-27T00:15:59.000Z,927.56
2016-10-27T00:17:10.452Z,927.52
2016-10-27T00:18:22.938Z,927.53
2016-10-27T00:19:35.891Z,927.57
2016-10-27T00:20:48.909Z,927.55
2016-10-27T00:22:01.408Z,927.59
2016-10-27T00:23:14.437Z,927.53
2016-10-27T00:24:28.100Z,927.49
2016-10-27T00:25:40.048Z,927.43
2016-10-27T00:26:52.493Z,927.38
2016-10-27T00:28:04.985Z,927.38
2016-10-27T00:29:17.974Z,927.42
2016-10-27T00:30:30.558Z,927.48
2016-10-27T00:31:42.674Z,927.5
2016-10-27T00:32:55.702Z,927.53
2016-10-27T00:34:09.282Z,927.64
2016-10-27T00:35:22.951Z,927.68
2016-10-27T00:36:34.886Z,927.7
2016-10-27T00:37:47.973Z,927.78
2016-10-27T00:39:00.413Z,927.79
2016-10-27T00:40:12.869Z,927.84
2016-10-27T00:41:26.024Z,927.89
2016-10-27T00:42:39.008Z,927.92
2016-10-27T00:43:51.443Z,927.95
2016-10-27T00:45:04.470Z,927.97
2016-10-27T00:46:18.201Z,928.02
2016-10-27T00:47:31.730Z,928.05
2016-10-27T00:48:44.747Z,928.12
2016-10-27T00:49:57.922Z,928.13
2016-10-27T00:51:09.374Z,928.19
2016-10-27T00:52:22.954Z,928.23
2016-10-27T00:53:34.882Z,928.25
2016-10-27T00:54:46.818Z,928.31
2016-10-27T00:55:59.259Z,928.29
2016-10-27T00:57:12.437Z,928.24
2016-10-27T00:58:25.500Z,928.33
2016-10-27T00:59:37.412Z,928.37
2016-10-27T01:00:49.884Z,928.47
2016-10-27T01:02:01.808Z,928.43
2016-10-27T01:03:14.294Z,928.42
2016-10-27T01:04:26.817Z,928.42
2016-10-27T01:05:38.765Z,928.4
2016-10-27T01:06:50.738Z,928.36
2016-10-27T01:08:03.773Z,928.21
2016-10-27T01:09:16.299Z,928.06
2016-10-27T01:10:28.769Z,927.94
2016-10-27T01:11:41.782Z,927.81
2016-10-27T01:12:54.255Z,927.7
2016-10-27T01:14:06.209Z,927.69
2016-10-27T01:15:18.171Z,927.65
2016-10-27T01:16:30.084Z,927.65
2016-10-27T01:17:43.067Z,927.63
2016-10-27T01:18:56.227Z,927.55
2016-10-27T01:20:08.725Z,927.47
2016-10-27T01:21:21.197Z,927.51
2016-10-27T01:22:32.656Z,927.49
2016-10-27T01:23:45.690Z,927.48
2016-10-27T01:24:58.314Z,927.53
2016-10-27T01:26:11.342Z,927.43
2016-10-27T01:27:23.874Z,927.39
2016-10-27T01:28:36.867Z,927.35
2016-10-27T01:29:49.497Z,927.37
2016-10-27T01:31:02.444Z,927.44
2016-10-27T01:32:15.007Z,927.49
2016-10-27T01:33:26.949Z,927.6
2016-10-27T01:34:38.913Z,927.6
2016-10-27T01:35:51.445Z,927.54
2016-10-27T01:37:05.012Z,927.54
2016-10-27T01:38:16.447Z,927.61
2016-10-27T01:39:29.487Z,927.69
2016-10-27T01:40:42.132Z,927.69
2016-10-27T01:41:55.648Z,927.66
2016-10-27T01:43:07.700Z,927.69
2016-10-27T01:44:20.713Z,927.71
2016-10-27T01:45:33.696Z,927.64
2016-10-27T01:46:46.869Z,927.63
2016-10-27T01:47:58.863Z,927.6
2016-10-27T01:49:11.921Z,927.57
2016-10-27T01:50:24.427Z,927.56
2016-10-27T01:51:37.517Z,927.44
2016-10-27T01:52:51.049Z,927.46
2016-10-27T01:54:03.557Z,927.45
2016-10-27T01:55:15.533Z,927.44
2016-10-27T01:56:29.037Z,927.43
2016-10-27T01:57:42.076Z,927.39
2016-10-27T01:58:53.988Z,927.38
2016-10-27T02:00:06.478Z,927.35
2016-10-27T02:01:18.965Z,927.47
2016-10-27T02:02:31.045Z,927.39
2016-10-27T02:03:44.105Z,927.31
2016-10-27T02:04:57.113Z,927.32
2016-10-27T02:06:09.027Z,927.17
2016-10-27T02:07:22.075Z,927.28
2016-10-27T02:08:35.990Z,927.27
2016-10-27T02:09:49.501Z,927.04
2016-10-27T02:11:01.981Z,926.95
2016-10-27T02:12:14.965Z,926.93
2016-10-27T02:13:27.654Z,926.89
2016-10-27T02:14:40.135Z,926.82
2016-10-27T02:15:53.607Z,926.76
2016-10-27T02:17:06.587Z,926.7
2016-10-27T02:18:19.078Z,926.58
2016-10-27T02:19:32.580Z,926.49
2016-10-27T02:20:44.510Z,926.48
2016-10-27T02:21:57.609Z,926.47
2016-10-27T02:23:09.614Z,926.42
2016-10-27T02:24:23.399Z,926.25
2016-10-27T02:25:36.909Z,926.18
2016-10-27T02:26:49.416Z,926.2
2016-10-27T02:28:01.876Z,926.16
2016-10-27T02:29:14.389Z,926.04
2016-10-27T02:30:26.507Z,925.88
2016-10-27T02:31:39.006Z,925.75
2016-10-27T02:32:52.005Z,925.62
2016-10-27T02:34:04.471Z,925.54
2016-10-27T02:35:16.634Z,925.51
2016-10-27T02:36:29.062Z,925.48
2016-10-27T02:37:42.083Z,925.48
2016-10-27T02:38:54.027Z,925.43
2016-10-27T02:40:06.506Z,925.41
2016-10-27T02:41:19.082Z,925.38
2016-10-27T02:42:31.042Z,925.28
2016-10-27T02:43:44.002Z,925.21
2016-10-27T02:44:57.486Z,925.13
2016-10-27T02:46:10.088Z,925.02
2016-10-27T02:47:23.119Z,924.96
2016-10-27T02:48:34.498Z,924.87
2016-10-27T02:49:47.963Z,924.87
2016-10-27T02:51:01.506Z,924.74
2016-10-27T02:52:13.545Z,924.64
2016-10-27T02:53:26.535Z,924.55
2016-10-27T02:54:39.583Z,924.41
2016-10-27T02:55:52.075Z,924.24
2016-10-27T02:57:03.628Z,924.14
2016-10-27T02:58:16.221Z,924.05
2016-10-27T02:59:29.205Z,923.9
2016-10-27T03:00:42.257Z,923.92
2016-10-27T03:01:55.324Z,923.9
2016-10-27T03:03:07.803Z,923.83
2016-10-27T03:04:19.775Z,923.87
2016-10-27T03:05:32.800Z,923.98
2016-10-27T03:06:45.236Z,924.03
2016-10-27T03:07:58.450Z,924.08
2016-10-27T03:09:10.942Z,924.1
2016-10-27T03:10:23.438Z,924.04
2016-10-27T03:11:36.978Z,924.06
2016-10-27T03:12:48.946Z,924.06
2016-10-27T03:14:02.736Z,924.12
2016-10-27T03:15:16.268Z,924.22
2016-10-27T03:16:29.249Z,924.39
2016-10-27T03:17:42.775Z,924.5
2016-10-27T03:18:54.843Z,924.6
2016-10-27T03:20:06.783Z,924.61
2016-10-27T03:21:19.742Z,924.65
2016-10-27T03:22:31.718Z,924.72
2016-10-27T03:23:43.672Z,924.7
2016-10-27T03:24:55.568Z,924.69
2016-10-27T03:26:08.568Z,924.67
2016-10-27T03:27:21.613Z,924.66
2016-10-27T03:28:34.703Z,924.61
2016-10-27T03:29:47.245Z,924.6
2016-10-27T03:30:58.640Z,924.61
2016-10-27T03:32:11.684Z,924.49
2016-10-27T03:33:25.194Z,924.5
2016-10-27T03:34:38.770Z,924.46
2016-10-27T03:35:51.225Z,924.44
2016-10-27T03:37:04.306Z,924.44
2016-10-27T03:38:16.281Z,924.47
2016-10-27T03:39:28.241Z,924.47
2016-10-27T03:40:41.320Z,924.42
2016-10-27T03:41:53.821Z,924.46
2016-10-27T03:43:07.316Z,924.5
2016-10-27T03:44:20.242Z,924.51
2016-10-27T03:45:33.769Z,924.51
2016-10-27T03:46:45.729Z,924.49
2016-10-27T03:47:59.303Z,924.47
2016-10-27T03:49:12.353Z,924.44
2016-10-27T03:50:24.801Z,924.42
2016-10-27T03:51:37.895Z,924.4
2016-10-27T03:52:51.362Z,924.39
2016-10-27T03:54:04.370Z,924.4
2016-10-27T03:55:17.419Z,924.34
2016-10-27T03:56:29.844Z,924.32
2016-10-27T03:57:42.277Z,924.28
2016-10-27T03:58:55.792Z,924.24
2016-10-27T04:00:09.362Z,924.28
2016-10-27T04:01:22.879Z,924.27
2016-10-27T04:02:35.955Z,924.26
2016-10-27T04:03:48.908Z,924.26
2016-10-27T04:05:02.489Z,924.26
2016-10-27T04:06:13.355Z,924.23
2016-10-27T04:07:25.850Z,924.22
2016-10-27T04:08:38.796Z,924.19
2016-10-27T04:09:51.796Z,924.19
2016-10-27T04:11:03.719Z,924.14
2016-10-27T04:12:15.670Z,924.14
2016-10-27T04:13:28.849Z,924.14
2016-10-27T04:14:41.324Z,924.13
2016-10-27T04:15:52.782Z,924.09
2016-10-27T04:17:04.680Z,924.05
2016-10-27T04:18:16.618Z,924.01
2016-10-27T04:19:29.053Z,924.07
2016-10-27T04:20:42.167Z,924.1
2016-10-27T04:21:55.097Z,924.1
2016-10-27T04:23:07.556Z,924.11
2016-10-27T04:24:21.245Z,924.06
2016-10-27T04:25:32.675Z,924.02
2016-10-27T04:26:46.228Z,923.99
2016-10-27T04:27:58.728Z,924.04
2016-10-27T04:29:12.244Z,924.02
2016-10-27T04:30:25.790Z,923.95
2016-10-27T04:31:38.292Z,923.94
2016-10-27T04:32:51.271Z,923.9
2016-10-27T04:34:03.763Z,923.93
2016-10-27T04:35:15.395Z,923.97
2016-10-27T04:36:28.438Z,923.94
2016-10-27T04:37:41.458Z,923.98
2016-10-27T04:38:52.850Z,923.95
2016-10-27T04:40:05.900Z,923.87
2016-10-27T04:41:17.425Z,923.85
2016-10-27T04:42:30.480Z,923.86
2016-10-27T04:43:41.893Z,923.84
2016-10-27T04:44:54.345Z,923.82
2016-10-27T04:46:08.000Z,923.81
2016-10-27T04:47:20.489Z,923.79
2016-10-27T04:48:32.986Z,923.78
2016-10-27T04:49:44.996Z,923.78
2016-10-27T04:50:57.985Z,923.77
2016-10-27T04:52:10.441Z,923.79
2016-10-27T04:53:22.955Z,923.78
2016-10-27T04:54:34.420Z,923.76
2016-10-27T04:55:46.354Z,923.76
2016-10-27T04:56:59.543Z,923.8
2016-10-27T04:58:12.011Z,923.79
2016-10-27T04:59:25.020Z,923.79
2016-10-27T05:00:37.971Z,923.79
2016-10-27T05:01:49.910Z,923.79
2016-10-27T05:03:02.489Z,923.81
2016-10-27T05:04:15.463Z,923.84
2016-10-27T05:05:27.909Z,923.84
2016-10-27T05:06:40.338Z,923.87
2016-10-27T05:07:52.962Z,923.89
2016-10-27T05:09:05.431Z,923.89
2016-10-27T05:10:18.424Z,923.9
2016-10-27T05:11:31.456Z,923.91
2016-10-27T05:12:45.010Z,923.94
2016-10-27T05:13:58.137Z,924.01
2016-10-27T05:15:11.713Z,924.06
2016-10-27T05:16:24.706Z,924.04
2016-10-27T05:17:36.591Z,924.04
2016-10-27T05:18:49.188Z,924.07
2016-10-27T05:20:01.736Z,924.07
2016-10-27T05:21:13.738Z,924.07
2016-10-27T05:22:26.769Z,924.16
2016-10-27T05:23:39.745Z,924.2
2016-10-27T05:24:51.367Z,924.33
2016-10-27T05:26:03.848Z,924.3
2016-10-27T05:27:16.826Z,924.28
2016-10-27T05:28:28.807Z,924.31
2016-10-27T05:29:41.905Z,924.31
2016-10-27T05:30:54.925Z,924.26
2016-10-27T05:32:07.395Z,924.2
2016-10-27T05:33:19.921Z,924.26
2016-10-27T05:34:32.464Z,924.35
2016-10-27T05:35:45.414Z,924.37
2016-10-27T05:36:58.388Z,924.37
2016-10-27T05:38:11.369Z,924.31
2016-10-27T05:39:23.341Z,924.31
2016-10-27T05:40:36.013Z,924.28
2016-10-27T05:41:48.942Z,924.25
2016-10-27T05:43:02.521Z,924.26
2016-10-27T05:44:15.049Z,924.2
2016-10-27T05:45:28.039Z,924.17
2016-10-27T05:46:40.547Z,924.19
2016-10-27T05:47:53.537Z,924.12
2016-10-27T05:49:07.126Z,924.12
2016-10-27T05:50:20.806Z,923.99
2016-10-27T05:51:34.535Z,923.95
2016-10-27T05:52:47.528Z,923.89
2016-10-27T05:54:00.575Z,923.93
2016-10-27T05:55:14.083Z,923.94
2016-10-27T05:56:27.096Z,923.97
2016-10-27T05:57:40.751Z,923.96
2016-10-27T05:58:52.712Z,924.02
2016-10-27T06:00:05.234Z,924.03
2016-10-27T06:01:18.265Z,924.08
2016-10-27T06:02:30.906Z,924.18
2016-10-27T06:03:43.946Z,924.14
2016-10-27T06:04:56.937Z,924.07
2016-10-27T06:06:08.848Z,924.03
2016-10-27T06:07:20.347Z,924.04
2016-10-27T06:08:32.964Z,924.11
2016-10-27T06:09:46.211Z,924.08
2016-10-27T06:10:59.229Z,924.11
2016-10-27T06:12:11.656Z,924.05
2016-10-27T06:13:24.278Z,923.95
2016-10-27T06:14:37.268Z,923.93
2016-10-27T06:15:49.777Z,923.97
2016-10-27T06:17:02.797Z,923.99
2016-10-27T06:18:15.818Z,924.04
2016-10-27T06:19:29.284Z,924.06
2016-10-27T06:20:42.293Z,924.01
2016-10-27T06:21:54.749Z,923.97
2016-10-27T06:23:07.739Z,923.92
2016-10-27T06:24:20.887Z,923.94
2016-10-27T06:25:33.894Z,923.89
2016-10-27T06:26:46.395Z,923.85
2016-10-27T06:27:59.463Z,923.82
2016-10-27T06:29:11.352Z,923.78
2016-10-27T06:30:24.320Z,923.86
2016-10-27T06:31:36.895Z,923.81
2016-10-27T06:32:49.887Z,923.76
2016-10-27T06:34:02.964Z,923.7
2016-10-27T06:35:14.985Z,923.73
2016-10-27T06:36:27.431Z,923.72
2016-10-27T06:37:39.899Z,923.7
2016-10-27T06:38:52.927Z,923.64
2016-10-27T06:40:05.960Z,923.63
2016-10-27T06:41:18.415Z,923.62
2016-10-27T06:42:30.882Z,923.66
2016-10-27T06:43:43.377Z,923.69
2016-10-27T06:44:55.349Z,923.68
2016-10-27T06:46:08.028Z,923.71
2016-10-27T06:47:20.530Z,923.77
2016-10-27T06:48:31.941Z,923.78
2016-10-27T06:49:45.208Z,923.78
2016-10-27T06:50:57.223Z,923.8
2016-10-27T06:52:09.702Z,923.85
2016-10-27T06:53:23.177Z,923.76
2016-10-27T06:54:35.199Z,923.82
2016-10-27T06:55:48.167Z,923.81
2016-10-27T06:57:00.189Z,923.85
2016-10-27T06:58:12.633Z,923.91
2016-10-27T06:59:24.593Z,923.96
2016-10-27T07:00:37.593Z,923.88
2016-10-27T07:01:49.557Z,923.87
2016-10-27T07:03:01.597Z,923.88
2016-10-27T07:04:13.630Z,923.86
2016-10-27T07:05:27.415Z,923.89
2016-10-27T07:06:40.461Z,923.83
2016-10-27T07:07:54.048Z,923.78
2016-10-27T07:09:06.615Z,923.71
2016-10-27T07:10:19.653Z,923.67
2016-10-27T07:11:32.610Z,923.61
2016-10-27T07:12:46.195Z,923.6
2016-10-27T07:13:59.837Z,923.59
2016-10-27T07:15:11.781Z,923.56
2016-10-27T07:16:24.302Z,923.54
2016-10-27T07:17:35.840Z,923.51
2016-10-27T07:18:49.336Z,923.52
2016-10-27T07:20:02.554Z,923.49
2016-10-27T07:21:13.897Z,923.5
2016-10-27T07:22:26.883Z,923.55
2016-10-27T07:23:39.447Z,923.53
2016-10-27T07:24:52.699Z,923.56
2016-10-27T07:26:04.651Z,923.62
2016-10-27T07:27:17.030Z,923.58
2016-10-27T07:28:29.007Z,923.61
2016-10-27T07:29:41.507Z,923.58
2016-10-27T07:30:54.495Z,923.54
2016-10-27T07:32:06.962Z,923.54
2016-10-27T07:33:20.568Z,923.61
2016-10-27T07:34:33.061Z,923.61
2016-10-27T07:35:45.114Z,923.64
2016-10-27T07:36:57.531Z,923.66
2016-10-27T07:38:10.466Z,923.71
2016-10-27T07:39:23.508Z,923.67
2016-10-27T07:40:36.479Z,923.63
2016-10-27T07:41:48.448Z,923.63
2016-10-27T07:43:01.406Z,923.65
2016-10-27T07:44:14.918Z,923.64
2016-10-27T07:45:27.906Z,923.68
2016-10-27T07:46:40.971Z,923.67
2016-10-27T07:47:52.923Z,923.61
2016-10-27T07:49:04.859Z,923.59
2016-10-27T07:50:16.840Z,923.61
2016-10-27T07:51:28.823Z,923.6
2016-10-27T07:52:41.811Z,923.62
2016-10-27T07:53:54.738Z,923.62
2016-10-27T07:55:08.261Z,923.54
2016-10-27T07:56:20.679Z,923.54
2016-10-27T07:57:33.281Z,923.53
2016-10-27T07:58:46.335Z,923.54
2016-10-27T07:59:58.259Z,923.54
2016-10-27T08:01:10.183Z,923.55
2016-10-27T08:02:23.177Z,923.49
2016-10-27T08:03:36.229Z,923.54
2016-10-27T08:04:48.762Z,923.51
2016-10-27T08:06:01.755Z,923.52
2016-10-27T08:07:14.233Z,923.6
2016-10-27T08:08:26.298Z,923.55
2016-10-27T08:09:39.318Z,923.57
2016-10-27T08:10:51.802Z,923.6
2016-10-27T08:12:04.272Z,923.52
2016-10-27T08:13:17.287Z,923.52
2016-10-27T08:14:29.375Z,923.5
2016-10-27T08:15:41.296Z,923.52
2016-10-27T08:16:53.837Z,923.48
2016-10-27T08:18:06.872Z,923.49
2016-10-27T08:19:20.120Z,923.51
2016-10-27T08:20:31.519Z,923.52
2016-10-27T08:21:44.584Z,923.5
2016-10-27T08:22:57.600Z,923.46
2016-10-27T08:24:10.048Z,923.5
2016-10-27T08:25:22.677Z,923.51
2016-10-27T08:26:35.232Z,923.49
2016-10-27T08:27:47.776Z,923.53
2016-10-27T08:29:00.307Z,923.48
2016-10-27T08:30:12.950Z,923.5
2016-10-27T08:31:25.419Z,923.47
2016-10-27T08:32:38.423Z,923.46
2016-10-27T08:33:51.445Z,923.5
2016-10-27T08:35:03.939Z,923.54
2016-10-27T08:36:15.937Z,923.53
2016-10-27T08:37:27.887Z,923.52
2016-10-27T08:38:40.868Z,923.54
2016-10-27T08:39:53.898Z,923.53
2016-10-27T08:41:07.065Z,923.53
2016-10-27T08:42:19.539Z,923.56
2016-10-27T08:43:32.463Z,923.57
2016-10-27T08:44:44.914Z,923.55
2016-10-27T08:45:58.444Z,923.56
2016-10-27T08:47:11.658Z,923.53
2016-10-27T08:48:25.175Z,923.63
2016-10-27T08:49:38.127Z,923.5
2016-10-27T08:50:51.182Z,923.49
2016-10-27T08:52:03.746Z,923.54
2016-10-27T08:53:17.229Z,923.53
2016-10-27T08:54:29.749Z,923.49
2016-10-27T08:55:42.255Z,923.48
2016-10-27T08:56:54.772Z,923.54
2016-10-27T08:58:07.808Z,923.53
2016-10-27T08:59:20.325Z,923.53
2016-10-27T09:00:32.933Z,923.6
2016-10-27T09:01:45.490Z,923.57
2016-10-27T09:02:59.290Z,923.61
2016-10-27T09:04:13.101Z,923.65
2016-10-27T09:05:26.081Z,923.71
2016-10-27T09:06:39.198Z,923.69
2016-10-27T09:07:51.856Z,923.67
2016-10-27T09:09:03.821Z,923.64
2016-10-27T09:10:17.535Z,923.64
2016-10-27T09:11:30.223Z,923.68
2016-10-27T09:12:44.012Z,923.61
2016-10-27T09:13:55.475Z,923.62
2016-10-27T09:15:07.989Z,923.56
2016-10-27T09:16:21.462Z,923.62
2016-10-27T09:17:33.769Z,923.62
2016-10-27T09:18:45.760Z,923.57
2016-10-27T09:19:59.047Z,923.56
2016-10-27T09:21:11.177Z,923.57
2016-10-27T09:22:23.904Z,923.59
2016-10-27T09:23:37.303Z,923.61
2016-10-27T09:24:49.263Z,923.6
2016-10-27T09:26:02.294Z,923.56
2016-10-27T09:27:15.510Z,923.63
2016-10-27T09:28:27.601Z,923.59
2016-10-27T09:29:40.756Z,923.55
2016-10-27T09:30:53.773Z,923.61
2016-10-27T09:32:06.273Z,923.59
2016-10-27T09:33:20.093Z,923.58
2016-10-27T09:34:33.165Z,923.56
2016-10-27T09:35:45.213Z,923.65
2016-10-27T09:36:57.206Z,923.55
2016-10-27T09:38:10.263Z,923.6
2016-10-27T09:39:22.451Z,923.6
2016-10-27T09:40:35.479Z,923.65
2016-10-27T09:42:19.805Z,923.68
2016-10-27T09:43:32.769Z,923.64
2016-10-27T09:44:46.314Z,923.55
2016-10-27T09:45:58.534Z,923.54
2016-10-27T09:47:13.021Z,923.51
2016-10-27T09:48:24.944Z,923.56
2016-10-27T09:49:38.028Z,923.55
2016-10-27T09:50:50.645Z,923.61
2016-10-27T09:52:03.729Z,923.62
2016-10-27T09:53:16.674Z,923.64
2016-10-27T09:54:30.164Z,923.65
2016-10-27T09:55:43.191Z,923.68
2016-10-27T09:56:55.323Z,923.7
2016-10-27T09:58:08.472Z,923.66
2016-10-27T09:59:22.807Z,923.76
2016-10-27T10:00:34.857Z,923.67
2016-10-27T10:01:47.726Z,923.74
2016-10-27T10:03:00.454Z,923.7
2016-10-27T10:04:19.680Z,923.81
2016-10-27T10:05:37.171Z,923.75
2016-10-27T10:06:51.047Z,923.7
2016-10-27T10:08:04.155Z,923.86
2016-10-27T10:09:16.650Z,923.72
2016-10-27T10:10:30.178Z,923.79
2016-10-27T10:11:42.172Z,923.69
2016-10-27T10:12:54.358Z,923.68
2016-10-27T10:14:08.000Z,923.65
2016-10-27T10:15:20.521Z,923.69
2016-10-27T10:16:32.958Z,923.62
2016-10-27T10:17:46.527Z,923.6
2016-10-27T10:19:00.040Z,923.56
2016-10-27T10:20:12.448Z,923.59
2016-10-27T10:21:24.824Z,923.53
2016-10-27T10:22:37.853Z,923.57
2016-10-27T10:23:51.024Z,923.56
2016-10-27T10:25:03.618Z,923.52
2016-10-27T10:26:16.588Z,923.6
2016-10-27T10:27:29.678Z,923.48
2016-10-27T10:28:42.745Z,923.44
2016-10-27T10:29:54.912Z,923.44
2016-10-27T10:31:10.976Z,923.48
2016-10-27T10:32:23.698Z,923.35
2016-10-27T10:33:36.195Z,923.42
2016-10-27T10:34:49.304Z,923.37
2016-10-27T10:36:00.769Z,923.33
2016-10-27T10:37:13.222Z,923.32
2016-10-27T10:38:25.733Z,923.25
2016-10-27T10:39:39.255Z,923.27
2016-10-27T10:40:52.289Z,923.34
2016-10-27T10:42:04.797Z,923.38
2016-10-27T10:43:16.768Z,923.4
2016-10-27T10:44:29.243Z,923.5
2016-10-27T10:45:40.906Z,923.52
2016-10-27T10:46:53.871Z,923.52
2016-10-27T10:48:07.468Z,923.52
2016-10-27T10:49:20.724Z,923.54
2016-10-27T10:50:34.341Z,923.61
2016-10-27T10:51:47.847Z,923.59
2016-10-27T10:53:00.910Z,923.71
2016-10-27T10:54:13.934Z,923.72
2016-10-27T10:55:26.546Z,923.74
2016-10-27T10:56:40.092Z,923.76
2016-10-27T10:57:54.243Z,923.76
2016-10-27T10:59:06.847Z,923.75
2016-10-27T11:00:19.687Z,923.82
2016-10-27T11:01:35.321Z,923.78
2016-10-27T11:02:51.439Z,923.87
2016-10-27T11:04:04.039Z,923.78
2016-10-27T11:05:17.674Z,923.84
2016-10-27T11:06:30.474Z,923.78
2016-10-27T11:07:43.819Z,923.81
2016-10-27T11:08:57.621Z,923.79
2016-10-27T11:10:10.318Z,923.82
2016-10-27T11:11:23.932Z,923.84
2016-10-27T11:12:37.208Z,923.87
2016-10-27T11:13:50.194Z,923.88
2016-10-27T11:15:03.495Z,923.85
2016-10-27T11:16:16.540Z,924.07
2016-10-27T11:17:30.221Z,923.85
2016-10-27T11:18:43.305Z,923.88
2016-10-27T11:19:55.891Z,923.89
2016-10-27T11:21:08.914Z,923.81
2016-10-27T11:22:22.503Z,923.81
2016-10-27T11:23:34.665Z,923.78
2016-10-27T11:24:47.698Z,923.75
2016-10-27T11:26:00.283Z,923.74
2016-10-27T11:27:13.266Z,923.69
2016-10-27T11:28:26.266Z,923.75
2016-10-27T11:29:38.283Z,923.8
2016-10-27T11:30:51.876Z,923.81
2016-10-27T11:32:05.559Z,923.78
2016-10-27T11:33:17.570Z,923.75
2016-10-27T11:34:31.202Z,923.75
2016-10-27T11:35:44.285Z,923.75
2016-10-27T11:36:56.788Z,923.74
2016-10-27T11:38:08.283Z,923.78
2016-10-27T11:39:20.286Z,923.92
2016-10-27T11:40:32.906Z,923.84
2016-10-27T11:41:45.943Z,923.81
2016-10-27T11:42:57.902Z,923.99
2016-10-27T11:44:10.408Z,923.89
2016-10-27T11:45:22.517Z,923.91
2016-10-27T11:46:34.590Z,923.92
2016-10-27T11:47:47.433Z,923.98
2016-10-27T11:49:00.300Z,923.97
2016-10-27T11:50:13.033Z,923.99
2016-10-27T11:51:26.813Z,923.92
2016-10-27T11:52:39.300Z,924.04
2016-10-27T11:54:24.031Z,924.15
2016-10-27T11:55:36.085Z,924.2
2016-10-27T11:56:48.591Z,924.13
2016-10-27T11:58:02.339Z,924.24
2016-10-27T11:59:13.782Z,924.21
2016-10-27T12:00:26.362Z,924.23
2016-10-27T12:01:39.048Z,924.51
2016-10-27T12:02:52.054Z,924.33
2016-10-27T12:04:04.532Z,924.29
2016-10-27T12:05:16.701Z,924.37
2016-10-27T12:06:29.775Z,924.22
2016-10-27T12:07:42.791Z,924.26
2016-10-27T12:08:54.675Z,924.18
2016-10-27T12:10:07.298Z,924.36
2016-10-27T12:11:19.233Z,924.37
2016-10-27T12:12:31.792Z,924.43
2016-10-27T12:13:43.789Z,924.41
2016-10-27T12:14:56.329Z,924.46
2016-10-27T12:16:08.898Z,924.29
2016-10-27T12:17:21.031Z,924.29
2016-10-27T12:18:33.697Z,924.26
2016-10-27T12:19:45.667Z,924.42
2016-10-27T12:20:58.794Z,924.5
2016-10-27T12:22:11.265Z,924.48
2016-10-27T12:23:25.054Z,924.45
2016-10-27T12:24:37.655Z,924.78
2016-10-27T12:25:50.564Z,924.4
2016-10-27T12:27:03.101Z,924.39
2016-10-27T12:28:16.848Z,924.39
2016-10-27T12:29:30.132Z,924.36
2016-10-27T12:30:42.651Z,924.31
2016-10-27T12:31:53.607Z,924.42
2016-10-27T12:33:05.481Z,924.45
2016-10-27T12:34:17.405Z,924.39
2016-10-27T12:35:29.888Z,924.32
2016-10-27T12:36:43.108Z,924.25
2016-10-27T12:37:56.143Z,924.36
2016-10-27T12:39:08.215Z,924.24
2016-10-27T12:40:21.285Z,924.29
2016-10-27T12:41:33.812Z,924.41
2016-10-27T12:42:45.720Z,924.48
2016-10-27T12:43:58.496Z,924.52
2016-10-27T12:45:11.689Z,924.25
